sensor_id;sensor_type;location;lat;lon;timestamp;P1;durP1;ratioP1;P2;durP2;ratioP2
55641;SDS011;41509;53.108;6.100;2022-12-29T00:02:22;3.43;;;2.70;;
55641;SDS011;41509;53.108;6.100;2022-12-29T00:04:48;4.53;;;2.63;;
55641;SDS011;41509;53.108;6.100;2022-12-29T00:07:15;2.95;;;1.98;;
55641;SDS011;41509;53.108;6.100;2022-12-29T00:09:41;3.50;;;1.88;;
55641;SDS011;41509;53.108;6.100;2022-12-29T00:12:07;2.83;;;1.83;;
55641;SDS011;41509;53.108;6.100;2022-12-29T00:14:33;3.63;;;2.23;;
55641;SDS011;41509;53.108;6.100;2022-12-29T00:17:17;2.33;;;1.83;;
55641;SDS011;41509;53.108;6.100;2022-12-29T00:19:42;2.90;;;1.77;;
55641;SDS011;41509;53.108;6.100;2022-12-29T00:22:27;3.97;;;2.50;;
55641;SDS011;41509;53.108;6.100;2022-12-29T00:25:31;3.85;;;2.15;;
55641;SDS011;41509;53.108;6.100;2022-12-29T00:28:15;3.00;;;2.10;;
55641;SDS011;41509;53.108;6.100;2022-12-29T00:30:59;3.58;;;2.28;;
55641;SDS011;41509;53.108;6.100;2022-12-29T00:33:44;4.55;;;2.28;;
55641;SDS011;41509;53.108;6.100;2022-12-29T00:36:32;4.20;;;2.47;;
55641;SDS011;41509;53.108;6.100;2022-12-29T00:39:02;3.80;;;2.67;;
55641;SDS011;41509;53.108;6.100;2022-12-29T00:41:52;4.53;;;2.17;;
55641;SDS011;41509;53.108;6.100;2022-12-29T00:44:36;3.25;;;2.20;;
55641;SDS011;41509;53.108;6.100;2022-12-29T00:47:02;3.60;;;2.40;;
55641;SDS011;41509;53.108;6.100;2022-12-29T00:49:29;4.20;;;2.45;;
55641;SDS011;41509;53.108;6.100;2022-12-29T00:51:56;4.85;;;2.38;;
55641;SDS011;41509;53.108;6.100;2022-12-29T00:54:27;3.13;;;2.20;;
55641;SDS011;41509;53.108;6.100;2022-12-29T00:56:54;3.80;;;2.20;;
55641;SDS011;41509;53.108;6.100;2022-12-29T00:59:20;5.20;;;2.80;;
55641;SDS011;41509;53.108;6.100;2022-12-29T01:01:46;2.63;;;2.03;;
55641;SDS011;41509;53.108;6.100;2022-12-29T01:04:14;4.03;;;2.72;;
55641;SDS011;41509;53.108;6.100;2022-12-29T01:06:40;3.30;;;2.10;;
55641;SDS011;41509;53.108;6.100;2022-12-29T01:09:06;3.88;;;2.10;;
55641;SDS011;41509;53.108;6.100;2022-12-29T01:11:51;4.43;;;2.13;;
55641;SDS011;41509;53.108;6.100;2022-12-29T01:14:17;3.00;;;2.10;;
55641;SDS011;41509;53.108;6.100;2022-12-29T01:16:44;5.55;;;2.22;;
55641;SDS011;41509;53.108;6.100;2022-12-29T01:19:10;4.85;;;2.60;;
55641;SDS011;41509;53.108;6.100;2022-12-29T01:21:36;3.20;;;2.10;;
55641;SDS011;41509;53.108;6.100;2022-12-29T01:24:02;4.77;;;1.80;;
55641;SDS011;41509;53.108;6.100;2022-12-29T01:26:30;3.83;;;2.05;;
55641;SDS011;41509;53.108;6.100;2022-12-29T01:28:56;3.15;;;2.20;;
55641;SDS011;41509;53.108;6.100;2022-12-29T01:31:21;4.90;;;2.57;;
55641;SDS011;41509;53.108;6.100;2022-12-29T01:33:47;3.90;;;2.50;;
55641;SDS011;41509;53.108;6.100;2022-12-29T01:36:14;3.00;;;2.17;;
55641;SDS011;41509;53.108;6.100;2022-12-29T01:38:41;4.15;;;1.85;;
55641;SDS011;41509;53.108;6.100;2022-12-29T01:41:11;4.80;;;2.33;;
55641;SDS011;41509;53.108;6.100;2022-12-29T01:46:19;4.05;;;2.25;;
55641;SDS011;41509;53.108;6.100;2022-12-29T01:51:51;3.38;;;2.15;;
55641;SDS011;41509;53.108;6.100;2022-12-29T01:56:57;3.90;;;2.22;;
55641;SDS011;41509;53.108;6.100;2022-12-29T01:59:30;4.63;;;2.60;;
55641;SDS011;41509;53.108;6.100;2022-12-29T02:01:59;4.95;;;2.33;;
55641;SDS011;41509;53.108;6.100;2022-12-29T02:04:28;5.88;;;2.97;;
55641;SDS011;41509;53.108;6.100;2022-12-29T02:06:59;5.28;;;2.20;;
55641;SDS011;41509;53.108;6.100;2022-12-29T02:09:29;3.83;;;2.42;;
55641;SDS011;41509;53.108;6.100;2022-12-29T02:11:55;6.72;;;3.38;;
55641;SDS011;41509;53.108;6.100;2022-12-29T02:14:22;2.90;;;2.10;;
55641;SDS011;41509;53.108;6.100;2022-12-29T02:19:45;4.22;;;2.05;;
55641;SDS011;41509;53.108;6.100;2022-12-29T02:22:30;3.55;;;2.10;;
55641;SDS011;41509;53.108;6.100;2022-12-29T02:33:30;2.60;;;1.63;;
55641;SDS011;41509;53.108;6.100;2022-12-29T02:36:25;3.80;;;1.38;;
55641;SDS011;41509;53.108;6.100;2022-12-29T02:39:32;3.35;;;1.67;;
55641;SDS011;41509;53.108;6.100;2022-12-29T02:50:34;1.88;;;1.00;;
55641;SDS011;41509;53.108;6.100;2022-12-29T02:53:13;0.90;;;0.70;;
55641;SDS011;41509;53.108;6.100;2022-12-29T02:55:49;2.10;;;1.27;;
55641;SDS011;41509;53.108;6.100;2022-12-29T02:58:19;1.60;;;1.10;;
55641;SDS011;41509;53.108;6.100;2022-12-29T03:00:48;2.20;;;0.85;;
55641;SDS011;41509;53.108;6.100;2022-12-29T03:11:46;2.57;;;0.90;;
55641;SDS011;41509;53.108;6.100;2022-12-29T03:14:36;2.03;;;0.90;;
55641;SDS011;41509;53.108;6.100;2022-12-29T03:17:41;3.50;;;0.82;;
55641;SDS011;41509;53.108;6.100;2022-12-29T03:20:10;2.25;;;1.10;;
55641;SDS011;41509;53.108;6.100;2022-12-29T03:22:44;2.17;;;0.80;;
55641;SDS011;41509;53.108;6.100;2022-12-29T03:27:44;1.50;;;0.85;;
55641;SDS011;41509;53.108;6.100;2022-12-29T03:30:13;2.13;;;0.75;;
55641;SDS011;41509;53.108;6.100;2022-12-29T03:32:42;2.17;;;1.05;;
55641;SDS011;41509;53.108;6.100;2022-12-29T03:35:18;1.27;;;0.57;;
55641;SDS011;41509;53.108;6.100;2022-12-29T03:37:54;1.02;;;0.73;;
55641;SDS011;41509;53.108;6.100;2022-12-29T03:40:32;3.22;;;0.95;;
55641;SDS011;41509;53.108;6.100;2022-12-29T03:42:59;1.25;;;0.77;;
55641;SDS011;41509;53.108;6.100;2022-12-29T03:45:26;2.53;;;0.90;;
55641;SDS011;41509;53.108;6.100;2022-12-29T03:47:53;2.93;;;1.10;;
55641;SDS011;41509;53.108;6.100;2022-12-29T03:52:44;2.20;;;0.90;;
55641;SDS011;41509;53.108;6.100;2022-12-29T03:55:10;1.03;;;0.60;;
55641;SDS011;41509;53.108;6.100;2022-12-29T03:57:35;3.53;;;1.30;;
55641;SDS011;41509;53.108;6.100;2022-12-29T04:00:02;2.08;;;0.95;;
55641;SDS011;41509;53.108;6.100;2022-12-29T04:02:29;2.15;;;0.90;;
55641;SDS011;41509;53.108;6.100;2022-12-29T04:04:55;2.83;;;0.80;;
55641;SDS011;41509;53.108;6.100;2022-12-29T04:07:21;1.20;;;0.70;;
55641;SDS011;41509;53.108;6.100;2022-12-29T04:09:47;7.53;;;1.23;;
55641;SDS011;41509;53.108;6.100;2022-12-29T04:12:12;2.30;;;0.70;;
55641;SDS011;41509;53.108;6.100;2022-12-29T04:17:07;2.40;;;0.60;;
55641;SDS011;41509;53.108;6.100;2022-12-29T04:19:33;3.77;;;0.77;;
55641;SDS011;41509;53.108;6.100;2022-12-29T04:21:59;4.33;;;1.10;;
55641;SDS011;41509;53.108;6.100;2022-12-29T04:24:24;2.97;;;0.53;;
55641;SDS011;41509;53.108;6.100;2022-12-29T04:26:50;4.87;;;1.07;;
55641;SDS011;41509;53.108;6.100;2022-12-29T04:29:15;2.43;;;0.87;;
55641;SDS011;41509;53.108;6.100;2022-12-29T04:31:41;2.43;;;0.87;;
55641;SDS011;41509;53.108;6.100;2022-12-29T04:34:09;4.15;;;0.90;;
55641;SDS011;41509;53.108;6.100;2022-12-29T04:36:35;3.83;;;0.50;;
55641;SDS011;41509;53.108;6.100;2022-12-29T04:39:00;3.10;;;0.60;;
55641;SDS011;41509;53.108;6.100;2022-12-29T04:41:27;6.72;;;1.20;;
55641;SDS011;41509;53.108;6.100;2022-12-29T04:43:52;1.65;;;0.82;;
55641;SDS011;41509;53.108;6.100;2022-12-29T04:46:18;3.23;;;0.50;;
55641;SDS011;41509;53.108;6.100;2022-12-29T04:48:44;3.73;;;1.07;;
55641;SDS011;41509;53.108;6.100;2022-12-29T04:51:09;7.10;;;0.80;;
55641;SDS011;41509;53.108;6.100;2022-12-29T04:53:35;3.70;;;0.50;;
55641;SDS011;41509;53.108;6.100;2022-12-29T04:56:01;3.60;;;0.70;;
55641;SDS011;41509;53.108;6.100;2022-12-29T04:58:26;6.07;;;0.90;;
55641;SDS011;41509;53.108;6.100;2022-12-29T05:00:52;4.30;;;1.27;;
55641;SDS011;41509;53.108;6.100;2022-12-29T05:03:18;9.83;;;1.23;;
55641;SDS011;41509;53.108;6.100;2022-12-29T05:05:46;6.22;;;1.05;;
55641;SDS011;41509;53.108;6.100;2022-12-29T05:08:11;6.27;;;1.10;;
55641;SDS011;41509;53.108;6.100;2022-12-29T05:10:37;8.10;;;1.33;;
55641;SDS011;41509;53.108;6.100;2022-12-29T05:13:03;5.47;;;0.95;;
55641;SDS011;41509;53.108;6.100;2022-12-29T05:15:29;9.05;;;0.90;;
55641;SDS011;41509;53.108;6.100;2022-12-29T05:17:54;6.93;;;1.27;;
55641;SDS011;41509;53.108;6.100;2022-12-29T05:20:20;4.27;;;1.23;;
55641;SDS011;41509;53.108;6.100;2022-12-29T05:22:46;5.40;;;0.67;;
55641;SDS011;41509;53.108;6.100;2022-12-29T05:25:11;8.13;;;1.23;;
55641;SDS011;41509;53.108;6.100;2022-12-29T05:27:37;4.90;;;1.10;;
55641;SDS011;41509;53.108;6.100;2022-12-29T05:30:03;3.40;;;0.87;;
55641;SDS011;41509;53.108;6.100;2022-12-29T05:32:28;11.98;;;1.67;;
55641;SDS011;41509;53.108;6.100;2022-12-29T05:34:54;5.90;;;1.50;;
55641;SDS011;41509;53.108;6.100;2022-12-29T05:37:20;5.03;;;1.20;;
55641;SDS011;41509;53.108;6.100;2022-12-29T05:39:45;11.00;;;1.50;;
55641;SDS011;41509;53.108;6.100;2022-12-29T05:42:11;10.77;;;1.27;;
55641;SDS011;41509;53.108;6.100;2022-12-29T05:44:37;5.57;;;1.10;;
55641;SDS011;41509;53.108;6.100;2022-12-29T05:47:02;8.43;;;1.20;;
55641;SDS011;41509;53.108;6.100;2022-12-29T05:49:28;2.03;;;0.80;;
55641;SDS011;41509;53.108;6.100;2022-12-29T05:51:53;4.40;;;1.03;;
55641;SDS011;41509;53.108;6.100;2022-12-29T05:54:19;9.82;;;1.75;;
55641;SDS011;41509;53.108;6.100;2022-12-29T05:56:45;3.73;;;1.10;;
55641;SDS011;41509;53.108;6.100;2022-12-29T05:59:10;8.07;;;2.17;;
55641;SDS011;41509;53.108;6.100;2022-12-29T06:01:36;18.67;;;2.87;;
55641;SDS011;41509;53.108;6.100;2022-12-29T06:04:02;6.53;;;1.27;;
55641;SDS011;41509;53.108;6.100;2022-12-29T06:06:27;18.93;;;1.20;;
55641;SDS011;41509;53.108;6.100;2022-12-29T06:08:53;7.53;;;1.17;;
55641;SDS011;41509;53.108;6.100;2022-12-29T06:11:19;6.47;;;1.10;;
55641;SDS011;41509;53.108;6.100;2022-12-29T06:13:47;8.48;;;0.98;;
55641;SDS011;41509;53.108;6.100;2022-12-29T06:16:13;6.03;;;1.27;;
55641;SDS011;41509;53.108;6.100;2022-12-29T06:18:40;4.20;;;0.93;;
55641;SDS011;41509;53.108;6.100;2022-12-29T06:21:11;3.53;;;0.93;;
55641;SDS011;41509;53.108;6.100;2022-12-29T06:23:36;9.90;;;1.48;;
55641;SDS011;41509;53.108;6.100;2022-12-29T06:26:02;5.43;;;1.37;;
55641;SDS011;41509;53.108;6.100;2022-12-29T06:28:30;10.60;;;2.05;;
55641;SDS011;41509;53.108;6.100;2022-12-29T06:30:56;6.57;;;1.35;;
55641;SDS011;41509;53.108;6.100;2022-12-29T06:33:22;4.87;;;1.40;;
55641;SDS011;41509;53.108;6.100;2022-12-29T06:35:48;10.80;;;2.07;;
55641;SDS011;41509;53.108;6.100;2022-12-29T06:38:13;12.20;;;1.50;;
55641;SDS011;41509;53.108;6.100;2022-12-29T06:40:39;7.87;;;1.40;;
55641;SDS011;41509;53.108;6.100;2022-12-29T06:43:06;6.57;;;1.23;;
55641;SDS011;41509;53.108;6.100;2022-12-29T06:45:32;6.50;;;1.00;;
55641;SDS011;41509;53.108;6.100;2022-12-29T06:47:58;9.97;;;1.57;;
55641;SDS011;41509;53.108;6.100;2022-12-29T06:50:23;6.43;;;1.00;;
55641;SDS011;41509;53.108;6.100;2022-12-29T06:52:52;5.53;;;1.30;;
55641;SDS011;41509;53.108;6.100;2022-12-29T06:55:17;8.47;;;1.80;;
55641;SDS011;41509;53.108;6.100;2022-12-29T06:57:43;3.90;;;1.07;;
55641;SDS011;41509;53.108;6.100;2022-12-29T07:00:09;10.53;;;1.73;;
55641;SDS011;41509;53.108;6.100;2022-12-29T07:02:35;11.05;;;1.80;;
55641;SDS011;41509;53.108;6.100;2022-12-29T07:05:00;11.30;;;2.47;;
55641;SDS011;41509;53.108;6.100;2022-12-29T07:07:26;9.93;;;1.47;;
55641;SDS011;41509;53.108;6.100;2022-12-29T07:09:51;11.53;;;1.40;;
55641;SDS011;41509;53.108;6.100;2022-12-29T07:12:17;9.43;;;1.20;;
55641;SDS011;41509;53.108;6.100;2022-12-29T07:14:43;11.23;;;2.03;;
55641;SDS011;41509;53.108;6.100;2022-12-29T07:17:08;17.30;;;1.97;;
55641;SDS011;41509;53.108;6.100;2022-12-29T07:19:34;8.70;;;1.50;;
55641;SDS011;41509;53.108;6.100;2022-12-29T07:22:02;6.53;;;1.20;;
55641;SDS011;41509;53.108;6.100;2022-12-29T07:24:27;7.17;;;1.47;;
55641;SDS011;41509;53.108;6.100;2022-12-29T07:26:54;6.45;;;1.40;;
55641;SDS011;41509;53.108;6.100;2022-12-29T07:29:20;7.43;;;1.40;;
55641;SDS011;41509;53.108;6.100;2022-12-29T07:31:48;7.60;;;1.38;;
55641;SDS011;41509;53.108;6.100;2022-12-29T07:34:13;13.27;;;1.33;;
55641;SDS011;41509;53.108;6.100;2022-12-29T07:36:39;10.17;;;1.63;;
55641;SDS011;41509;53.108;6.100;2022-12-29T07:39:05;6.87;;;1.10;;
55641;SDS011;41509;53.108;6.100;2022-12-29T07:41:30;9.63;;;1.33;;
55641;SDS011;41509;53.108;6.100;2022-12-29T07:43:56;5.27;;;1.67;;
55641;SDS011;41509;53.108;6.100;2022-12-29T07:46:22;10.57;;;1.80;;
55641;SDS011;41509;53.108;6.100;2022-12-29T07:48:47;7.10;;;1.17;;
55641;SDS011;41509;53.108;6.100;2022-12-29T07:51:13;9.87;;;1.70;;
55641;SDS011;41509;53.108;6.100;2022-12-29T07:53:38;6.13;;;1.20;;
55641;SDS011;41509;53.108;6.100;2022-12-29T07:56:04;10.00;;;1.40;;
55641;SDS011;41509;53.108;6.100;2022-12-29T08:00:56;4.72;;;1.02;;
55641;SDS011;41509;53.108;6.100;2022-12-29T08:03:22;14.73;;;1.77;;
55641;SDS011;41509;53.108;6.100;2022-12-29T08:05:49;17.85;;;2.78;;
55641;SDS011;41509;53.108;6.100;2022-12-29T08:08:15;5.87;;;1.30;;
55641;SDS011;41509;53.108;6.100;2022-12-29T08:10:41;7.00;;;1.73;;
55641;SDS011;41509;53.108;6.100;2022-12-29T08:13:06;9.80;;;2.07;;
55641;SDS011;41509;53.108;6.100;2022-12-29T08:15:32;7.95;;;1.08;;
55641;SDS011;41509;53.108;6.100;2022-12-29T08:17:58;8.63;;;2.37;;
55641;SDS011;41509;53.108;6.100;2022-12-29T08:20:24;16.08;;;2.50;;
55641;SDS011;41509;53.108;6.100;2022-12-29T08:22:50;10.70;;;1.77;;
55641;SDS011;41509;53.108;6.100;2022-12-29T08:25:16;9.40;;;1.35;;
55641;SDS011;41509;53.108;6.100;2022-12-29T08:27:41;5.47;;;1.57;;
55641;SDS011;41509;53.108;6.100;2022-12-29T08:30:07;16.93;;;2.03;;
55641;SDS011;41509;53.108;6.100;2022-12-29T08:32:33;10.98;;;2.60;;
55641;SDS011;41509;53.108;6.100;2022-12-29T08:34:59;14.97;;;1.97;;
55641;SDS011;41509;53.108;6.100;2022-12-29T08:37:25;22.15;;;2.28;;
55641;SDS011;41509;53.108;6.100;2022-12-29T08:39:51;14.30;;;2.05;;
55641;SDS011;41509;53.108;6.100;2022-12-29T08:42:17;10.23;;;3.13;;
55641;SDS011;41509;53.108;6.100;2022-12-29T08:44:42;8.60;;;1.50;;
55641;SDS011;41509;53.108;6.100;2022-12-29T08:47:09;16.07;;;2.10;;
55641;SDS011;41509;53.108;6.100;2022-12-29T08:49:35;12.85;;;1.75;;
55641;SDS011;41509;53.108;6.100;2022-12-29T08:52:01;7.17;;;1.60;;
55641;SDS011;41509;53.108;6.100;2022-12-29T08:54:27;11.50;;;1.90;;
55641;SDS011;41509;53.108;6.100;2022-12-29T08:56:52;12.47;;;1.70;;
55641;SDS011;41509;53.108;6.100;2022-12-29T08:59:18;8.70;;;2.00;;
55641;SDS011;41509;53.108;6.100;2022-12-29T09:01:44;8.35;;;2.17;;
55641;SDS011;41509;53.108;6.100;2022-12-29T09:04:10;11.75;;;2.10;;
55641;SDS011;41509;53.108;6.100;2022-12-29T09:09:02;10.35;;;1.48;;
55641;SDS011;41509;53.108;6.100;2022-12-29T09:11:28;7.87;;;2.17;;
55641;SDS011;41509;53.108;6.100;2022-12-29T09:13:54;9.03;;;2.37;;
55641;SDS011;41509;53.108;6.100;2022-12-29T09:16:21;10.30;;;2.72;;
55641;SDS011;41509;53.108;6.100;2022-12-29T09:18:48;14.73;;;2.40;;
55641;SDS011;41509;53.108;6.100;2022-12-29T09:21:13;5.90;;;1.50;;
55641;SDS011;41509;53.108;6.100;2022-12-29T09:23:39;17.37;;;2.03;;
55641;SDS011;41509;53.108;6.100;2022-12-29T09:26:05;10.75;;;1.55;;
55641;SDS011;41509;53.108;6.100;2022-12-29T09:28:32;12.15;;;1.73;;
55641;SDS011;41509;53.108;6.100;2022-12-29T09:30:58;8.13;;;1.45;;
55641;SDS011;41509;53.108;6.100;2022-12-29T09:33:24;9.07;;;1.67;;
55641;SDS011;41509;53.108;6.100;2022-12-29T09:35:51;10.85;;;2.08;;
55641;SDS011;41509;53.108;6.100;2022-12-29T09:38:18;12.30;;;1.70;;
55641;SDS011;41509;53.108;6.100;2022-12-29T09:40:45;9.75;;;1.70;;
55641;SDS011;41509;53.108;6.100;2022-12-29T09:48:33;7.53;;;1.83;;
55641;SDS011;41509;53.108;6.100;2022-12-29T09:51:07;16.63;;;2.60;;
55641;SDS011;41509;53.108;6.100;2022-12-29T09:53:38;10.35;;;1.17;;
55641;SDS011;41509;53.108;6.100;2022-12-29T09:56:19;7.60;;;1.73;;
55641;SDS011;41509;53.108;6.100;2022-12-29T10:01:21;9.65;;;1.98;;
55641;SDS011;41509;53.108;6.100;2022-12-29T10:03:51;6.60;;;1.17;;
55641;SDS011;41509;53.108;6.100;2022-12-29T10:06:29;4.88;;;1.70;;
55641;SDS011;41509;53.108;6.100;2022-12-29T10:17:27;9.07;;;1.77;;
55641;SDS011;41509;53.108;6.100;2022-12-29T10:19:57;7.28;;;1.30;;
55641;SDS011;41509;53.108;6.100;2022-12-29T10:25:30;7.10;;;1.60;;
55641;SDS011;41509;53.108;6.100;2022-12-29T10:28:01;11.43;;;2.00;;
55641;SDS011;41509;53.108;6.100;2022-12-29T10:30:31;8.93;;;1.95;;
55641;SDS011;41509;53.108;6.100;2022-12-29T10:33:01;8.93;;;1.48;;
55641;SDS011;41509;53.108;6.100;2022-12-29T10:35:30;16.67;;;1.75;;
55641;SDS011;41509;53.108;6.100;2022-12-29T10:43:32;12.35;;;1.92;;
55641;SDS011;41509;53.108;6.100;2022-12-29T10:46:12;9.77;;;1.80;;
55641;SDS011;41509;53.108;6.100;2022-12-29T10:48:41;7.40;;;1.67;;
55641;SDS011;41509;53.108;6.100;2022-12-29T10:51:20;9.77;;;1.90;;
55641;SDS011;41509;53.108;6.100;2022-12-29T10:54:10;13.45;;;2.22;;
55641;SDS011;41509;53.108;6.100;2022-12-29T10:56:46;9.27;;;2.75;;
55641;SDS011;41509;53.108;6.100;2022-12-29T10:59:25;11.95;;;2.35;;
55641;SDS011;41509;53.108;6.100;2022-12-29T11:02:42;14.50;;;2.83;;
55641;SDS011;41509;53.108;6.100;2022-12-29T11:05:23;7.05;;;1.98;;
55641;SDS011;41509;53.108;6.100;2022-12-29T11:08:08;16.27;;;2.15;;
55641;SDS011;41509;53.108;6.100;2022-12-29T11:10:38;15.70;;;2.78;;
55641;SDS011;41509;53.108;6.100;2022-12-29T11:14:10;14.20;;;3.30;;
55641;SDS011;41509;53.108;6.100;2022-12-29T11:16:13;14.63;;;2.13;;
55641;SDS011;41509;53.108;6.100;2022-12-29T11:18:39;15.63;;;3.00;;
55641;SDS011;41509;53.108;6.100;2022-12-29T11:23:56;15.70;;;2.33;;
55641;SDS011;41509;53.108;6.100;2022-12-29T11:26:29;11.63;;;1.85;;
55641;SDS011;41509;53.108;6.100;2022-12-29T11:31:33;17.23;;;3.55;;
55641;SDS011;41509;53.108;6.100;2022-12-29T11:34:06;11.90;;;2.53;;
55641;SDS011;41509;53.108;6.100;2022-12-29T11:36:32;14.57;;;2.03;;
55641;SDS011;41509;53.108;6.100;2022-12-29T11:39:00;16.17;;;2.75;;
55641;SDS011;41509;53.108;6.100;2022-12-29T11:41:29;16.58;;;2.97;;
55641;SDS011;41509;53.108;6.100;2022-12-29T11:44:00;14.60;;;3.95;;
55641;SDS011;41509;53.108;6.100;2022-12-29T11:46:33;14.57;;;2.72;;
55641;SDS011;41509;53.108;6.100;2022-12-29T11:49:02;12.82;;;2.22;;
55641;SDS011;41509;53.108;6.100;2022-12-29T11:51:34;7.25;;;1.77;;
55641;SDS011;41509;53.108;6.100;2022-12-29T11:54:11;14.65;;;2.45;;
55641;SDS011;41509;53.108;6.100;2022-12-29T11:56:44;8.57;;;1.45;;
55641;SDS011;41509;53.108;6.100;2022-12-29T12:02:24;9.90;;;1.83;;
55641;SDS011;41509;53.108;6.100;2022-12-29T12:04:53;9.05;;;1.80;;
55641;SDS011;41509;53.108;6.100;2022-12-29T12:07:39;16.05;;;1.73;;
55641;SDS011;41509;53.108;6.100;2022-12-29T12:10:37;8.50;;;1.50;;
55641;SDS011;41509;53.108;6.100;2022-12-29T12:13:22;13.75;;;2.08;;
55641;SDS011;41509;53.108;6.100;2022-12-29T12:15:57;6.38;;;1.25;;
55641;SDS011;41509;53.108;6.100;2022-12-29T12:21:29;6.10;;;1.20;;
55641;SDS011;41509;53.108;6.100;2022-12-29T12:29:22;9.05;;;1.05;;
55641;SDS011;41509;53.108;6.100;2022-12-29T12:35:16;4.78;;;0.73;;
55641;SDS011;41509;53.108;6.100;2022-12-29T12:41:16;5.57;;;0.93;;
55641;SDS011;41509;53.108;6.100;2022-12-29T12:43:39;4.70;;;1.02;;
55641;SDS011;41509;53.108;6.100;2022-12-29T12:54:11;9.63;;;1.45;;
55641;SDS011;41509;53.108;6.100;2022-12-29T13:02:29;5.63;;;1.35;;
55641;SDS011;41509;53.108;6.100;2022-12-29T13:15:44;7.00;;;1.45;;
55641;SDS011;41509;53.108;6.100;2022-12-29T13:26:06;16.58;;;1.67;;
55641;SDS011;41509;53.108;6.100;2022-12-29T13:31:43;4.47;;;1.40;;
55641;SDS011;41509;53.108;6.100;2022-12-29T13:34:19;5.05;;;1.20;;
55641;SDS011;41509;53.108;6.100;2022-12-29T13:36:54;5.97;;;1.63;;
55641;SDS011;41509;53.108;6.100;2022-12-29T13:39:34;11.55;;;1.10;;
55641;SDS011;41509;53.108;6.100;2022-12-29T13:42:04;10.05;;;1.23;;
55641;SDS011;41509;53.108;6.100;2022-12-29T13:44:31;7.57;;;1.00;;
55641;SDS011;41509;53.108;6.100;2022-12-29T13:47:02;2.70;;;1.13;;
55641;SDS011;41509;53.108;6.100;2022-12-29T13:49:37;7.75;;;1.25;;
55641;SDS011;41509;53.108;6.100;2022-12-29T13:52:15;6.20;;;1.15;;
55641;SDS011;41509;53.108;6.100;2022-12-29T13:57:44;9.77;;;1.95;;
55641;SDS011;41509;53.108;6.100;2022-12-29T14:00:20;6.13;;;1.30;;
55641;SDS011;41509;53.108;6.100;2022-12-29T14:03:04;4.78;;;0.90;;
55641;SDS011;41509;53.108;6.100;2022-12-29T14:08:02;6.25;;;1.10;;
55641;SDS011;41509;53.108;6.100;2022-12-29T14:10:32;4.75;;;1.33;;
55641;SDS011;41509;53.108;6.100;2022-12-29T14:15:37;7.00;;;1.58;;
55641;SDS011;41509;53.108;6.100;2022-12-29T14:18:26;9.75;;;1.30;;
55641;SDS011;41509;53.108;6.100;2022-12-29T14:28:32;5.75;;;1.17;;
55641;SDS011;41509;53.108;6.100;2022-12-29T14:31:00;5.20;;;1.30;;
55641;SDS011;41509;53.108;6.100;2022-12-29T14:33:30;8.50;;;1.48;;
55641;SDS011;41509;53.108;6.100;2022-12-29T14:36:19;6.22;;;1.30;;
55641;SDS011;41509;53.108;6.100;2022-12-29T14:38:44;15.98;;;1.45;;
55641;SDS011;41509;53.108;6.100;2022-12-29T14:41:56;6.25;;;1.55;;
55641;SDS011;41509;53.108;6.100;2022-12-29T14:46:44;11.75;;;2.22;;
55641;SDS011;41509;53.108;6.100;2022-12-29T14:49:14;13.90;;;2.22;;
55641;SDS011;41509;53.108;6.100;2022-12-29T14:51:44;10.07;;;1.83;;
55641;SDS011;41509;53.108;6.100;2022-12-29T14:57:03;7.95;;;1.80;;
55641;SDS011;41509;53.108;6.100;2022-12-29T14:59:32;8.35;;;1.42;;
55641;SDS011;41509;53.108;6.100;2022-12-29T15:02:00;10.98;;;1.35;;
55641;SDS011;41509;53.108;6.100;2022-12-29T15:04:32;9.15;;;1.67;;
55641;SDS011;41509;53.108;6.100;2022-12-29T15:07:00;12.65;;;1.70;;
55641;SDS011;41509;53.108;6.100;2022-12-29T15:09:35;9.30;;;1.50;;
55641;SDS011;41509;53.108;6.100;2022-12-29T15:12:14;7.78;;;1.95;;
55641;SDS011;41509;53.108;6.100;2022-12-29T15:15:23;12.05;;;1.15;;
55641;SDS011;41509;53.108;6.100;2022-12-29T15:17:50;8.57;;;1.35;;
55641;SDS011;41509;53.108;6.100;2022-12-29T15:22:54;8.80;;;1.70;;
55641;SDS011;41509;53.108;6.100;2022-12-29T15:25:22;8.68;;;1.42;;
55641;SDS011;41509;53.108;6.100;2022-12-29T15:27:51;8.60;;;1.60;;
55641;SDS011;41509;53.108;6.100;2022-12-29T15:30:21;8.38;;;1.75;;
55641;SDS011;41509;53.108;6.100;2022-12-29T15:35:25;4.20;;;1.30;;
55641;SDS011;41509;53.108;6.100;2022-12-29T15:37:59;8.07;;;1.60;;
55641;SDS011;41509;53.108;6.100;2022-12-29T15:40:31;5.47;;;1.70;;
55641;SDS011;41509;53.108;6.100;2022-12-29T15:45:26;9.67;;;1.93;;
55641;SDS011;41509;53.108;6.100;2022-12-29T15:47:59;8.80;;;2.53;;
55641;SDS011;41509;53.108;6.100;2022-12-29T15:50:26;8.23;;;2.70;;
55641;SDS011;41509;53.108;6.100;2022-12-29T15:52:54;9.27;;;2.22;;
55641;SDS011;41509;53.108;6.100;2022-12-29T15:57:55;5.45;;;1.40;;
55641;SDS011;41509;53.108;6.100;2022-12-29T16:00:27;7.57;;;1.85;;
55641;SDS011;41509;53.108;6.100;2022-12-29T16:03:03;6.53;;;0.80;;
55641;SDS011;41509;53.108;6.100;2022-12-29T16:05:37;4.85;;;0.80;;
55641;SDS011;41509;53.108;6.100;2022-12-29T16:08:15;4.88;;;1.10;;
55641;SDS011;41509;53.108;6.100;2022-12-29T16:11:26;9.07;;;1.40;;
55641;SDS011;41509;53.108;6.100;2022-12-29T16:13:57;4.72;;;0.95;;
55641;SDS011;41509;53.108;6.100;2022-12-29T16:18:56;8.52;;;1.40;;
55641;SDS011;41509;53.108;6.100;2022-12-29T16:21:24;10.20;;;1.75;;
55641;SDS011;41509;53.108;6.100;2022-12-29T16:24:01;3.72;;;1.60;;
55641;SDS011;41509;53.108;6.100;2022-12-29T16:26:30;4.32;;;1.60;;
55641;SDS011;41509;53.108;6.100;2022-12-29T16:28:57;5.05;;;1.23;;
55641;SDS011;41509;53.108;6.100;2022-12-29T16:31:34;9.50;;;1.40;;
55641;SDS011;41509;53.108;6.100;2022-12-29T16:34:21;8.20;;;2.05;;
55641;SDS011;41509;53.108;6.100;2022-12-29T16:39:24;6.20;;;1.50;;
55641;SDS011;41509;53.108;6.100;2022-12-29T16:41:53;6.05;;;1.40;;
55641;SDS011;41509;53.108;6.100;2022-12-29T16:44:24;7.20;;;1.65;;
55641;SDS011;41509;53.108;6.100;2022-12-29T16:49:24;10.63;;;2.28;;
55641;SDS011;41509;53.108;6.100;2022-12-29T16:51:51;9.30;;;1.83;;
55641;SDS011;41509;53.108;6.100;2022-12-29T16:54:21;8.48;;;1.80;;
55641;SDS011;41509;53.108;6.100;2022-12-29T16:56:49;5.05;;;2.10;;
55641;SDS011;41509;53.108;6.100;2022-12-29T16:59:21;10.57;;;1.67;;
55641;SDS011;41509;53.108;6.100;2022-12-29T17:01:56;16.90;;;2.33;;
55641;SDS011;41509;53.108;6.100;2022-12-29T17:04:23;10.57;;;2.67;;
55641;SDS011;41509;53.108;6.100;2022-12-29T17:06:49;6.67;;;1.60;;
55641;SDS011;41509;53.108;6.100;2022-12-29T17:11:46;13.20;;;2.30;;
55641;SDS011;41509;53.108;6.100;2022-12-29T17:14:22;5.97;;;1.65;;
55641;SDS011;41509;53.108;6.100;2022-12-29T17:16:50;10.63;;;3.13;;
55641;SDS011;41509;53.108;6.100;2022-12-29T17:19:20;11.57;;;2.35;;
55641;SDS011;41509;53.108;6.100;2022-12-29T17:21:53;16.50;;;1.77;;
55641;SDS011;41509;53.108;6.100;2022-12-29T17:24:19;8.40;;;1.63;;
55641;SDS011;41509;53.108;6.100;2022-12-29T17:26:45;12.82;;;2.13;;
55641;SDS011;41509;53.108;6.100;2022-12-29T17:32:01;12.00;;;3.28;;
55641;SDS011;41509;53.108;6.100;2022-12-29T17:34:29;12.27;;;2.25;;
55641;SDS011;41509;53.108;6.100;2022-12-29T17:39:24;10.32;;;2.40;;
55641;SDS011;41509;53.108;6.100;2022-12-29T17:41:50;5.63;;;1.50;;
55641;SDS011;41509;53.108;6.100;2022-12-29T17:44:16;14.53;;;1.93;;
55641;SDS011;41509;53.108;6.100;2022-12-29T17:46:44;10.73;;;2.60;;
55641;SDS011;41509;53.108;6.100;2022-12-29T17:49:11;5.60;;;1.52;;
55641;SDS011;41509;53.108;6.100;2022-12-29T17:51:39;9.15;;;2.00;;
55641;SDS011;41509;53.108;6.100;2022-12-29T17:54:05;12.65;;;2.13;;
55641;SDS011;41509;53.108;6.100;2022-12-29T17:56:42;10.57;;;2.33;;
55641;SDS011;41509;53.108;6.100;2022-12-29T17:59:10;16.03;;;2.93;;
55641;SDS011;41509;53.108;6.100;2022-12-29T18:01:38;11.95;;;2.25;;